Magazine, Arkansas
Current Conditions -  °F | °C
As of 12:53 AM on Sunday 26 Oct 2014 (Local Time) from KFSM Reporting Station
Haze Haze  
Wind Chill: 64°   Ceiling: Unl
Heat Index: 64°   Visibility: 5mi
Dew Point: 62°   Wind: 3mph
Humidity: 93%   Direction: 50°NE
Pressure: 30.01"   Gusts: NA
Location:  35.15°N, 93.81°W
Report Text: KFSM 260553Z AUTO 05003KT 5SM BR CLR 18/17 A3001 RMK AO2 SLP157 T01780167 10239 20178 403060128 58007
Loading
Personal Weather Stations






























Interactive Weather Map
Tropical Storm Tracking
New forecast layout! Learn more

10-Day Weather Forecast

Advertisements
Track Severe Weather on mobile